Skip Navigation LinksHome page > Weather > Current weather Skip Navigation Links

Current Weather

San Francisco International, San Francisco

For information only: do not use for flight planning or navigation.
Latest weather
Observation time Thursday, October 20, 2016 1:56 PM PDT
Local time Thursday, October 20, 2016 2:17 PM PDT
Flight conditions Visual Meteorological Conditions
Wind speed calm
Visibility 10 mi.
Sky condition
Ceiling unlimited
Cloud layer few clouds 20,000 ft.
Temperature 72°F
Dewpoint 48°F
Altimeter 30.08 in.Hg
Pressure change last 3 hours0.06 in.Hg
Pressure falling more quickly
Derived measurements
Relative humidity 43%
Density altitude 835 ft.
Sea-level pressure 30.08 in.Hg
System requires maintenance.
Automated weather observing station with precipitation discriminator.
METAR KSFO 202056Z 00000KT 10SM FEW200 22/09 A3008 RMK AO2 SLP186 T02220089 58022 $


Location code

InnerDrive.Weather 4.0.5722.1 Release CLR 4.0.30319.34209
Copyright ©2015 Inner Drive Technology. All rights reserved. Portions Copyright ©1986-2015 David Braverman.

Find weather

Site navigation

Skip Navigation Links

Place info

Page info

PayPal - The safer, easier way to pay online!

Return home.

Copyright ©2016 Inner Drive Technology. Purveyors of fine, hand-crafted computer software. Page printed 2016-10-20T21:17:32 UTC.